الصفحة الرئيسية
METAR-TAF:

METAR-TAF

مطار :

مطار لندن هيثرو, إنجلترا

دائرة عرض: 51-29N, خط طول: 000-27W, ارتفاع: 24 متر

مراقبة الطقس الحالي

تاريخ ووقت الإصدار 16 دقيقة قبل الساعة 08:20UTC
ريح 6 عقدة من الشرق/الشمال الشرقي, الاتجاه يتراوح بين الشمال/الشمال الشرقي و الشرق
درجة الحرارة 3°درجة مئوية
الرطوبة 70%
ضغط 1024 hPa
الرؤية: 9000 متر
ملبد بالغيوم على ارتفاع 2800 قدم

METAR: EGLL 220820Z AUTO 06006KT 020V090 9000 OVC028 03/M02 Q1024 NOSIG

زمن: 08:36 (08:36 UTC)

توقعات

تاريخ ووقت الإصدار 3ساعات و 43 دقيقة قبل الساعة 04:53UTC
التوقعات صالحة من22 الساعة 06 UTC إلى 23 الساعة 12 UTC
ريح 8 عقدة من الشرق/الشمال الشرقي
الرؤية 10 كم أو أكثر
غيوم متفرقة على ارتفاع 2500 قدم
نظرية الاحتمالات 30% :
مؤقت
من 22 الساعة 06 UTC إلى 22 الساعة 08 UTC
الرؤية: 4000 متر
غشاء

TAF: EGLL 220453Z 2206/2312 07008KT 9999 SCT025 PROB30 TEMPO 2206/2208 4000 BR

أرصاد الطقس والتوقعات من أكثر من 4000 مطار (تقارير الطقس للمطار METAR والتنبؤ بالطقس بالمطارTAF).

المحطات المتاحة هي النقط الصفراء والحمراء على الخريطة.

حرك المؤشر فوق النقطة لمعرفة اسم المحطة.

ثم انقر لمعرفة أرصاد وتوقعات الطقس.

لتغيير الخارطة: اضغط على الأزرار الخضراء مع رمز الصليب الأسود للتكبير. على الزر الأخضر مع شرطة للتصغير، أو على الأسهم الخضراء للخرائط المجاورة.


METAR-TAF: